»·PEaware :: QXE2486 KSEA-KBLI

QXE2486 :: KSEA-KBLI

FLIGHT INFORMATION

Flight Status: Arrived
Operator:
Horizon Air
More flights by this operator :: More flights under this callsign
Pilot: David F. (17152)
Aircraft: DEHAVILLAND DASH 8 400
(DH8D)
More flights by this aircraft type
Origin: KSEA Seattle-Tacoma Intl
United States
Destination: KBLI Bellingham Intl
United States
More flights between these airports :: More routes between these airports
Route: PAE MADEE MADEE4
File this flight plan on PilotEdge
Remarks: RMK / SIMBRIEF
Altitude:
(Current/Filed)
12,000ft
Speed:
(Current/Filed)
298kts
Departed: 07-Jun-20 09:35 AM
Arrived: 07-Jun-20 10:21 AM
Distance/Time
Traveled:
81nm/0:46
Distance/Time
To Go:
Arrived

Flight Plot

Page will automatically refresh every two minutes.

Flight plan parsing failed; only flown route is shown


Map Options




Map Legend


Flown Route
Filed Route
Departure Airport
Arrival Airport
Navaid (VOR, NDB)
Fix

Horizontal Profiles

Position Reports

Time Latitude Longitude Heading Altitude Ground
Speed
07-Jun-20 08:44 47.445755 -122.304675 90 400ft 0kts
07-Jun-20 08:45 47.445755 -122.304675 90 400ft 0kts
07-Jun-20 08:46 47.445755 -122.304675 90 400ft 0kts
07-Jun-20 08:47 47.445755 -122.304675 90 400ft 0kts
07-Jun-20 08:48 47.445755 -122.304675 90 400ft 0kts
07-Jun-20 08:49 47.445755 -122.304675 90 400ft 0kts
07-Jun-20 08:50 47.445755 -122.304675 90 400ft 0kts
07-Jun-20 08:51 47.445755 -122.304675 90 400ft 0kts
07-Jun-20 08:52 47.445755 -122.304675 90 400ft 0kts
07-Jun-20 08:53 47.445755 -122.304675 90 400ft 0kts
07-Jun-20 08:54 47.445755 -122.304675 90 400ft 0kts
07-Jun-20 08:55 47.445755 -122.304675 90 400ft 0kts
07-Jun-20 08:56 47.445755 -122.304675 90 400ft 0kts
07-Jun-20 08:57 47.445755 -122.304675 90 400ft 0kts
07-Jun-20 08:58 47.445755 -122.304675 90 400ft 0kts
07-Jun-20 08:59 47.445755 -122.304675 90 400ft 0kts
07-Jun-20 09:00 47.445755 -122.304675 90 400ft 0kts
07-Jun-20 09:01 47.445755 -122.304675 90 400ft 0kts
07-Jun-20 09:02 47.445755 -122.304675 90 400ft 0kts
07-Jun-20 09:03 47.445755 -122.304675 90 400ft 0kts
07-Jun-20 09:04 47.445755 -122.304675 90 400ft 0kts
07-Jun-20 09:05 47.445755 -122.304675 90 400ft 0kts
07-Jun-20 09:06 47.445755 -122.304675 90 400ft 0kts
07-Jun-20 09:07 47.445755 -122.304675 90 400ft 0kts
07-Jun-20 09:08 47.445755 -122.304675 90 400ft 0kts
07-Jun-20 09:09 47.445755 -122.304675 90 400ft 0kts
07-Jun-20 09:10 47.445755 -122.304675 90 400ft 0kts
07-Jun-20 09:11 47.445755 -122.304675 90 400ft 0kts
07-Jun-20 09:12 47.445755 -122.304675 90 400ft 0kts
07-Jun-20 09:13 47.445755 -122.304675 90 400ft 0kts
07-Jun-20 09:14 47.445755 -122.304675 90 400ft 0kts
07-Jun-20 09:15 47.445755 -122.304675 90 400ft 0kts
07-Jun-20 09:16 47.445755 -122.304675 90 400ft 0kts
07-Jun-20 09:17 47.445755 -122.304675 90 400ft 0kts
07-Jun-20 09:18 47.445755 -122.304668 90 400ft 0kts
07-Jun-20 09:19 47.445693 -122.305078 59 400ft 2kts
07-Jun-20 09:20 47.445341 -122.305416 6 399ft 2kts
07-Jun-20 09:21 47.445260 -122.305420 359 399ft 0kts
07-Jun-20 09:22 47.445260 -122.305420 359 399ft 0kts
07-Jun-20 09:23 47.445275 -122.305420 0 399ft 1kts
07-Jun-20 09:24 47.446364 -122.306245 342 401ft 7kts
07-Jun-20 09:25 47.448658 -122.306265 0 407ft 19kts
07-Jun-20 09:26 47.452278 -122.306230 0 424ft 16kts
07-Jun-20 09:27 47.455922 -122.306200 0 432ft 19kts
07-Jun-20 09:28 47.459876 -122.306166 2 442ft 24kts
07-Jun-20 09:29 47.462113 -122.306139 0 464ft 3kts
07-Jun-20 09:30 47.463517 -122.306160 334 423ft 7kts
07-Jun-20 09:31 47.463667 -122.306357 311 418ft 0kts
07-Jun-20 09:32 47.463667 -122.306357 311 418ft 0kts
07-Jun-20 09:33 47.463237 -122.307761 182 407ft 13kts
07-Jun-20 09:34 47.446860 -122.307168 179 690ft 151kts
07-Jun-20 09:35 47.430247 -122.307861 175 776ft 125kts
07-Jun-20 09:36 47.418856 -122.306587 184 572ft 145kts
07-Jun-20 09:37 47.388264 -122.306484 180 2337ft 171kts
07-Jun-20 09:38 47.347966 -122.305187 180 3471ft 223kts
07-Jun-20 09:39 47.307884 -122.284859 120 4535ft 259kts
07-Jun-20 09:40 47.316308 -122.215484 27 5652ft 248kts
07-Jun-20 09:41 47.357455 -122.228996 328 6720ft 232kts
07-Jun-20 09:42 47.394237 -122.253392 6 7641ft 234kts
07-Jun-20 09:43 47.434606 -122.246632 0 8659ft 234kts
07-Jun-20 09:44 47.474979 -122.247193 356 9600ft 245kts
07-Jun-20 09:45 47.520346 -122.250322 356 10440ft 274kts
07-Jun-20 09:46 47.572460 -122.253877 356 11145ft 300kts
07-Jun-20 09:47 47.634274 -122.258112 357 11894ft 314kts
07-Jun-20 09:48 47.695769 -122.262326 357 12007ft 337kts
07-Jun-20 09:49 47.760704 -122.266803 357 11993ft 338kts
07-Jun-20 09:50 47.823947 -122.271193 357 11995ft 319kts
07-Jun-20 09:51 47.888396 -122.275639 357 11999ft 318kts
07-Jun-20 09:52 47.953755 -122.287760 349 11999ft 319kts
07-Jun-20 09:53 48.021767 -122.307278 349 11999ft 320kts
07-Jun-20 09:54 48.091009 -122.327331 349 11998ft 321kts
07-Jun-20 09:55 48.154781 -122.345849 349 12000ft 321kts
07-Jun-20 09:56 48.231051 -122.368071 349 11997ft 322kts
07-Jun-20 09:57 48.312600 -122.391916 349 11992ft 322kts
07-Jun-20 09:58 48.385650 -122.413251 349 11973ft 306kts
07-Jun-20 09:59 48.456065 -122.433986 349 11997ft 311kts
07-Jun-20 10:00 48.531961 -122.456363 349 11378ft 316kts
07-Jun-20 10:01 48.602706 -122.477275 349 10054ft 292kts
07-Jun-20 10:02 48.662421 -122.512420 323 8777ft 274kts
07-Jun-20 10:03 48.712968 -122.570848 322 7116ft 265kts
07-Jun-20 10:04 48.764535 -122.630832 321 5337ft 263kts
07-Jun-20 10:05 48.821244 -122.663596 357 3689ft 256kts
07-Jun-20 10:06 48.887492 -122.664190 358 2636ft 224kts
07-Jun-20 10:07 48.941641 -122.664712 358 1981ft 190kts
07-Jun-20 10:09 48.984316 -122.664368 355 1997ft 184kts
07-Jun-20 10:10 49.022352 -122.666833 356 1992ft 182kts
07-Jun-20 10:11 49.060220 -122.669664 356 1989ft 180kts
07-Jun-20 10:12 49.094262 -122.658391 63 1988ft 173kts
07-Jun-20 10:13 49.079664 -122.611825 135 1991ft 163kts
07-Jun-20 10:14 49.048515 -122.566208 135 1989ft 168kts
07-Jun-20 10:15 49.014193 -122.538289 177 2000ft 172kts
07-Jun-20 10:16 48.962065 -122.538134 178 1991ft 176kts
07-Jun-20 10:17 48.911353 -122.537967 178 1994ft 180kts
07-Jun-20 10:18 48.862506 -122.537799 179 1358ft 163kts
07-Jun-20 10:19 48.825485 -122.537234 178 709ft 105kts
07-Jun-20 10:20 48.800611 -122.537539 181 242ft 107kts
07-Jun-20 10:21 48.790782 -122.537540 182 163ft 17kts
07-Jun-20 10:22 48.791775 -122.535829 357 162ft 7kts
07-Jun-20 10:23 48.793677 -122.535710 29 165ft 10kts
07-Jun-20 10:24 48.794704 -122.534481 30 163ft 0kts
07-Jun-20 10:25 48.794849 -122.534161 61 163ft 3kts
07-Jun-20 10:26 48.795065 -122.533635 48 162ft 0kts
07-Jun-20 10:26 48.795065 -122.533634 48 162ft 0kts
07-Jun-20 10:28 48.795065 -122.533635 48 162ft 0kts
07-Jun-20 10:29 48.795065 -122.533635 48 162ft 0kts
07-Jun-20 10:29 48.795065 -122.533635 48 162ft 0kts
07-Jun-20 10:30 48.795065 -122.533635 48 162ft 0kts

Navigation Log

Ident Type
Flight plan parsing failed, navigation log unavailable